sensor_id;sensor_type;location;lat;lon;timestamp;P1;durP1;ratioP1;P2;durP2;ratioP2
46230;SDS011;31949;51.404;-0.038;2023-03-11T00:00:20;10.55;;;5.82;;
46230;SDS011;31949;51.404;-0.038;2023-03-11T00:02:49;9.23;;;5.05;;
46230;SDS011;31949;51.404;-0.038;2023-03-11T00:05:19;9.68;;;6.10;;
46230;SDS011;31949;51.404;-0.038;2023-03-11T00:07:51;10.13;;;6.20;;
46230;SDS011;31949;51.404;-0.038;2023-03-11T00:10:22;8.43;;;5.80;;
46230;SDS011;31949;51.404;-0.038;2023-03-11T00:13:00;8.93;;;6.15;;
46230;SDS011;31949;51.404;-0.038;2023-03-11T00:15:28;13.48;;;7.32;;
46230;SDS011;31949;51.404;-0.038;2023-03-11T00:17:56;10.68;;;5.85;;
46230;SDS011;31949;51.404;-0.038;2023-03-11T00:20:37;9.68;;;5.50;;
46230;SDS011;31949;51.404;-0.038;2023-03-11T00:23:06;6.22;;;5.05;;
46230;SDS011;31949;51.404;-0.038;2023-03-11T00:25:35;7.72;;;4.97;;
46230;SDS011;31949;51.404;-0.038;2023-03-11T00:28:03;9.93;;;5.35;;
46230;SDS011;31949;51.404;-0.038;2023-03-11T00:30:33;10.38;;;5.32;;
46230;SDS011;31949;51.404;-0.038;2023-03-11T00:33:00;8.73;;;5.18;;
46230;SDS011;31949;51.404;-0.038;2023-03-11T00:35:29;7.78;;;6.18;;
46230;SDS011;31949;51.404;-0.038;2023-03-11T00:37:59;10.93;;;6.15;;
46230;SDS011;31949;51.404;-0.038;2023-03-11T00:40:28;14.38;;;6.88;;
46230;SDS011;31949;51.404;-0.038;2023-03-11T00:43:00;8.82;;;5.97;;
46230;SDS011;31949;51.404;-0.038;2023-03-11T00:45:28;9.75;;;5.40;;
46230;SDS011;31949;51.404;-0.038;2023-03-11T00:47:55;9.23;;;5.30;;
46230;SDS011;31949;51.404;-0.038;2023-03-11T00:50:27;8.32;;;5.88;;
46230;SDS011;31949;51.404;-0.038;2023-03-11T00:52:56;8.32;;;5.05;;
46230;SDS011;31949;51.404;-0.038;2023-03-11T00:55:25;8.55;;;5.45;;
46230;SDS011;31949;51.404;-0.038;2023-03-11T00:58:00;9.50;;;4.85;;
46230;SDS011;31949;51.404;-0.038;2023-03-11T01:00:42;6.85;;;3.90;;
46230;SDS011;31949;51.404;-0.038;2023-03-11T01:03:09;6.63;;;4.03;;
46230;SDS011;31949;51.404;-0.038;2023-03-11T01:05:36;8.95;;;4.18;;
46230;SDS011;31949;51.404;-0.038;2023-03-11T01:08:03;7.85;;;4.82;;
46230;SDS011;31949;51.404;-0.038;2023-03-11T01:10:31;6.32;;;4.50;;
46230;SDS011;31949;51.404;-0.038;2023-03-11T01:12:59;6.07;;;3.80;;
46230;SDS011;31949;51.404;-0.038;2023-03-11T01:15:31;11.43;;;5.20;;
46230;SDS011;31949;51.404;-0.038;2023-03-11T01:18:01;7.15;;;5.05;;
46230;SDS011;31949;51.404;-0.038;2023-03-11T01:20:32;7.25;;;5.07;;
46230;SDS011;31949;51.404;-0.038;2023-03-11T01:22:59;6.93;;;4.88;;
46230;SDS011;31949;51.404;-0.038;2023-03-11T01:25:27;11.00;;;5.10;;
46230;SDS011;31949;51.404;-0.038;2023-03-11T01:27:56;8.13;;;5.03;;
46230;SDS011;31949;51.404;-0.038;2023-03-11T01:30:25;10.55;;;4.68;;
46230;SDS011;31949;51.404;-0.038;2023-03-11T01:32:55;11.80;;;5.80;;
46230;SDS011;31949;51.404;-0.038;2023-03-11T01:35:23;12.90;;;6.20;;
46230;SDS011;31949;51.404;-0.038;2023-03-11T01:37:52;12.45;;;5.50;;
46230;SDS011;31949;51.404;-0.038;2023-03-11T01:40:30;9.38;;;5.20;;
46230;SDS011;31949;51.404;-0.038;2023-03-11T01:46:24;7.60;;;4.47;;
46230;SDS011;31949;51.404;-0.038;2023-03-11T01:48:54;7.25;;;4.30;;
46230;SDS011;31949;51.404;-0.038;2023-03-11T01:51:28;6.13;;;4.20;;
46230;SDS011;31949;51.404;-0.038;2023-03-11T01:53:59;10.57;;;5.30;;
46230;SDS011;31949;51.404;-0.038;2023-03-11T01:56:30;8.35;;;4.68;;
46230;SDS011;31949;51.404;-0.038;2023-03-11T01:58:58;7.43;;;4.32;;
46230;SDS011;31949;51.404;-0.038;2023-03-11T02:01:26;9.07;;;5.35;;
46230;SDS011;31949;51.404;-0.038;2023-03-11T02:03:56;12.40;;;4.85;;
46230;SDS011;31949;51.404;-0.038;2023-03-11T02:06:24;8.82;;;4.85;;
46230;SDS011;31949;51.404;-0.038;2023-03-11T02:08:52;6.25;;;4.30;;
46230;SDS011;31949;51.404;-0.038;2023-03-11T02:11:21;8.02;;;4.25;;
46230;SDS011;31949;51.404;-0.038;2023-03-11T02:13:53;5.80;;;4.78;;
46230;SDS011;31949;51.404;-0.038;2023-03-11T02:16:25;7.20;;;4.63;;
46230;SDS011;31949;51.404;-0.038;2023-03-11T02:18:53;7.65;;;4.80;;
46230;SDS011;31949;51.404;-0.038;2023-03-11T02:21:22;10.48;;;4.60;;
46230;SDS011;31949;51.404;-0.038;2023-03-11T02:29:20;8.75;;;4.50;;
46230;SDS011;31949;51.404;-0.038;2023-03-11T02:31:48;7.10;;;4.70;;
46230;SDS011;31949;51.404;-0.038;2023-03-11T02:34:19;7.15;;;4.32;;
46230;SDS011;31949;51.404;-0.038;2023-03-11T02:36:55;10.52;;;5.38;;
46230;SDS011;31949;51.404;-0.038;2023-03-11T02:39:47;8.38;;;5.18;;
46230;SDS011;31949;51.404;-0.038;2023-03-11T02:42:24;6.95;;;5.57;;
46230;SDS011;31949;51.404;-0.038;2023-03-11T02:44:56;7.55;;;5.00;;
46230;SDS011;31949;51.404;-0.038;2023-03-11T02:47:31;9.18;;;5.13;;
46230;SDS011;31949;51.404;-0.038;2023-03-11T02:50:00;10.65;;;5.57;;
46230;SDS011;31949;51.404;-0.038;2023-03-11T02:52:30;7.05;;;5.10;;
46230;SDS011;31949;51.404;-0.038;2023-03-11T02:54:59;8.48;;;4.82;;
46230;SDS011;31949;51.404;-0.038;2023-03-11T02:57:27;9.80;;;4.50;;
46230;SDS011;31949;51.404;-0.038;2023-03-11T02:59:54;9.32;;;4.78;;
46230;SDS011;31949;51.404;-0.038;2023-03-11T03:02:21;9.40;;;5.25;;
46230;SDS011;31949;51.404;-0.038;2023-03-11T03:04:51;8.95;;;5.07;;
46230;SDS011;31949;51.404;-0.038;2023-03-11T03:07:18;7.32;;;4.53;;
46230;SDS011;31949;51.404;-0.038;2023-03-11T03:09:45;12.90;;;5.35;;
46230;SDS011;31949;51.404;-0.038;2023-03-11T03:12:13;8.52;;;5.28;;
46230;SDS011;31949;51.404;-0.038;2023-03-11T03:14:40;7.55;;;4.38;;
46230;SDS011;31949;51.404;-0.038;2023-03-11T03:17:08;7.80;;;5.45;;
46230;SDS011;31949;51.404;-0.038;2023-03-11T03:19:36;9.52;;;4.82;;
46230;SDS011;31949;51.404;-0.038;2023-03-11T03:22:03;8.77;;;5.18;;
46230;SDS011;31949;51.404;-0.038;2023-03-11T03:24:31;9.50;;;5.85;;
46230;SDS011;31949;51.404;-0.038;2023-03-11T03:26:58;9.75;;;4.65;;
46230;SDS011;31949;51.404;-0.038;2023-03-11T03:29:25;7.10;;;4.72;;
46230;SDS011;31949;51.404;-0.038;2023-03-11T03:31:53;9.07;;;5.18;;
46230;SDS011;31949;51.404;-0.038;2023-03-11T03:34:20;6.60;;;4.05;;
46230;SDS011;31949;51.404;-0.038;2023-03-11T03:36:48;12.07;;;4.78;;
46230;SDS011;31949;51.404;-0.038;2023-03-11T03:39:16;6.57;;;4.60;;
46230;SDS011;31949;51.404;-0.038;2023-03-11T03:41:48;8.90;;;4.75;;
46230;SDS011;31949;51.404;-0.038;2023-03-11T03:44:16;8.80;;;4.78;;
46230;SDS011;31949;51.404;-0.038;2023-03-11T03:46:44;6.78;;;4.15;;
46230;SDS011;31949;51.404;-0.038;2023-03-11T03:49:12;9.85;;;5.13;;
46230;SDS011;31949;51.404;-0.038;2023-03-11T03:51:39;8.27;;;5.03;;
46230;SDS011;31949;51.404;-0.038;2023-03-11T03:54:16;7.35;;;4.43;;
46230;SDS011;31949;51.404;-0.038;2023-03-11T03:56:43;10.48;;;4.78;;
46230;SDS011;31949;51.404;-0.038;2023-03-11T03:59:11;7.45;;;4.53;;
46230;SDS011;31949;51.404;-0.038;2023-03-11T04:01:45;6.50;;;4.25;;
46230;SDS011;31949;51.404;-0.038;2023-03-11T04:04:12;8.50;;;5.25;;
46230;SDS011;31949;51.404;-0.038;2023-03-11T04:06:40;6.68;;;5.00;;
46230;SDS011;31949;51.404;-0.038;2023-03-11T04:09:10;7.45;;;5.00;;
46230;SDS011;31949;51.404;-0.038;2023-03-11T04:11:38;9.40;;;5.00;;
46230;SDS011;31949;51.404;-0.038;2023-03-11T04:14:06;7.30;;;5.10;;
46230;SDS011;31949;51.404;-0.038;2023-03-11T04:16:38;6.20;;;4.28;;
46230;SDS011;31949;51.404;-0.038;2023-03-11T04:19:10;4.00;;;3.22;;
46230;SDS011;31949;51.404;-0.038;2023-03-11T04:21:37;10.60;;;5.38;;
46230;SDS011;31949;51.404;-0.038;2023-03-11T04:24:05;7.72;;;4.63;;
46230;SDS011;31949;51.404;-0.038;2023-03-11T04:26:34;6.50;;;4.72;;
46230;SDS011;31949;51.404;-0.038;2023-03-11T04:29:04;6.97;;;4.85;;
46230;SDS011;31949;51.404;-0.038;2023-03-11T04:31:37;6.15;;;3.95;;
46230;SDS011;31949;51.404;-0.038;2023-03-11T04:34:05;9.25;;;4.40;;
46230;SDS011;31949;51.404;-0.038;2023-03-11T04:36:34;9.27;;;5.20;;
46230;SDS011;31949;51.404;-0.038;2023-03-11T04:39:02;8.10;;;4.78;;
46230;SDS011;31949;51.404;-0.038;2023-03-11T04:41:34;7.18;;;5.07;;
46230;SDS011;31949;51.404;-0.038;2023-03-11T04:44:02;8.90;;;5.13;;
46230;SDS011;31949;51.404;-0.038;2023-03-11T04:46:29;6.80;;;4.97;;
46230;SDS011;31949;51.404;-0.038;2023-03-11T04:48:58;10.52;;;4.40;;
46230;SDS011;31949;51.404;-0.038;2023-03-11T04:51:26;8.20;;;4.93;;
46230;SDS011;31949;51.404;-0.038;2023-03-11T04:53:53;7.55;;;4.68;;
46230;SDS011;31949;51.404;-0.038;2023-03-11T04:56:21;7.38;;;4.43;;
46230;SDS011;31949;51.404;-0.038;2023-03-11T04:58:49;12.93;;;5.18;;
46230;SDS011;31949;51.404;-0.038;2023-03-11T05:01:16;6.82;;;4.30;;
46230;SDS011;31949;51.404;-0.038;2023-03-11T05:03:44;6.57;;;4.50;;
46230;SDS011;31949;51.404;-0.038;2023-03-11T05:06:12;8.70;;;4.90;;
46230;SDS011;31949;51.404;-0.038;2023-03-11T05:08:39;8.07;;;4.05;;
46230;SDS011;31949;51.404;-0.038;2023-03-11T05:11:07;6.28;;;4.38;;
46230;SDS011;31949;51.404;-0.038;2023-03-11T05:13:34;7.78;;;4.50;;
46230;SDS011;31949;51.404;-0.038;2023-03-11T05:16:01;8.43;;;4.07;;
46230;SDS011;31949;51.404;-0.038;2023-03-11T05:18:29;6.45;;;4.63;;
46230;SDS011;31949;51.404;-0.038;2023-03-11T05:20:58;8.88;;;5.65;;
46230;SDS011;31949;51.404;-0.038;2023-03-11T05:23:29;7.93;;;4.37;;
46230;SDS011;31949;51.404;-0.038;2023-03-11T05:25:56;9.43;;;5.07;;
46230;SDS011;31949;51.404;-0.038;2023-03-11T05:28:23;6.57;;;4.75;;
46230;SDS011;31949;51.404;-0.038;2023-03-11T05:30:52;8.65;;;4.50;;
46230;SDS011;31949;51.404;-0.038;2023-03-11T05:33:20;8.75;;;4.43;;
46230;SDS011;31949;51.404;-0.038;2023-03-11T05:35:48;8.93;;;5.70;;
46230;SDS011;31949;51.404;-0.038;2023-03-11T05:38:18;8.13;;;4.88;;
46230;SDS011;31949;51.404;-0.038;2023-03-11T05:40:46;8.57;;;4.72;;
46230;SDS011;31949;51.404;-0.038;2023-03-11T05:43:13;6.50;;;4.78;;
46230;SDS011;31949;51.404;-0.038;2023-03-11T05:45:44;9.55;;;4.75;;
46230;SDS011;31949;51.404;-0.038;2023-03-11T05:48:11;7.10;;;4.50;;
46230;SDS011;31949;51.404;-0.038;2023-03-11T05:50:39;10.15;;;4.97;;
46230;SDS011;31949;51.404;-0.038;2023-03-11T05:53:06;8.55;;;4.57;;
46230;SDS011;31949;51.404;-0.038;2023-03-11T05:55:33;6.03;;;4.32;;
46230;SDS011;31949;51.404;-0.038;2023-03-11T05:58:00;10.75;;;4.20;;
46230;SDS011;31949;51.404;-0.038;2023-03-11T06:00:28;5.68;;;3.83;;
46230;SDS011;31949;51.404;-0.038;2023-03-11T06:02:57;8.45;;;4.60;;
46230;SDS011;31949;51.404;-0.038;2023-03-11T06:05:25;4.72;;;3.42;;
46230;SDS011;31949;51.404;-0.038;2023-03-11T06:07:53;5.55;;;3.17;;
46230;SDS011;31949;51.404;-0.038;2023-03-11T06:10:21;8.20;;;3.67;;
46230;SDS011;31949;51.404;-0.038;2023-03-11T06:12:49;6.00;;;3.83;;
46230;SDS011;31949;51.404;-0.038;2023-03-11T06:15:25;6.13;;;4.15;;
46230;SDS011;31949;51.404;-0.038;2023-03-11T06:17:53;6.53;;;4.55;;
46230;SDS011;31949;51.404;-0.038;2023-03-11T06:20:20;9.27;;;4.10;;
46230;SDS011;31949;51.404;-0.038;2023-03-11T06:22:49;7.57;;;4.43;;
46230;SDS011;31949;51.404;-0.038;2023-03-11T06:25:19;11.02;;;4.70;;
46230;SDS011;31949;51.404;-0.038;2023-03-11T06:27:47;7.25;;;5.45;;
46230;SDS011;31949;51.404;-0.038;2023-03-11T06:30:18;10.02;;;5.50;;
46230;SDS011;31949;51.404;-0.038;2023-03-11T06:33:06;8.32;;;5.80;;
46230;SDS011;31949;51.404;-0.038;2023-03-11T06:35:33;9.38;;;5.53;;
46230;SDS011;31949;51.404;-0.038;2023-03-11T06:38:00;10.13;;;4.85;;
46230;SDS011;31949;51.404;-0.038;2023-03-11T06:40:28;5.30;;;4.03;;
46230;SDS011;31949;51.404;-0.038;2023-03-11T06:42:55;6.07;;;4.43;;
46230;SDS011;31949;51.404;-0.038;2023-03-11T06:45:24;7.43;;;4.57;;
46230;SDS011;31949;51.404;-0.038;2023-03-11T06:47:52;7.88;;;4.47;;
46230;SDS011;31949;51.404;-0.038;2023-03-11T06:50:20;9.60;;;4.32;;
46230;SDS011;31949;51.404;-0.038;2023-03-11T06:52:50;8.57;;;5.13;;
46230;SDS011;31949;51.404;-0.038;2023-03-11T06:55:18;10.85;;;4.93;;
46230;SDS011;31949;51.404;-0.038;2023-03-11T06:57:46;10.73;;;5.40;;
46230;SDS011;31949;51.404;-0.038;2023-03-11T07:00:14;7.63;;;4.93;;
46230;SDS011;31949;51.404;-0.038;2023-03-11T07:02:47;12.77;;;5.60;;
46230;SDS011;31949;51.404;-0.038;2023-03-11T07:05:15;8.95;;;5.68;;
46230;SDS011;31949;51.404;-0.038;2023-03-11T07:07:44;7.18;;;5.25;;
46230;SDS011;31949;51.404;-0.038;2023-03-11T07:10:11;9.02;;;5.25;;
46230;SDS011;31949;51.404;-0.038;2023-03-11T07:12:38;10.18;;;5.90;;
46230;SDS011;31949;51.404;-0.038;2023-03-11T07:15:06;8.30;;;5.63;;
46230;SDS011;31949;51.404;-0.038;2023-03-11T07:17:34;10.82;;;6.93;;
46230;SDS011;31949;51.404;-0.038;2023-03-11T07:20:02;8.93;;;6.57;;
46230;SDS011;31949;51.404;-0.038;2023-03-11T07:22:29;9.25;;;6.32;;
46230;SDS011;31949;51.404;-0.038;2023-03-11T07:24:57;10.35;;;6.03;;
46230;SDS011;31949;51.404;-0.038;2023-03-11T07:27:24;15.55;;;7.55;;
46230;SDS011;31949;51.404;-0.038;2023-03-11T07:29:52;11.80;;;5.82;;
46230;SDS011;31949;51.404;-0.038;2023-03-11T07:32:20;9.65;;;5.68;;
46230;SDS011;31949;51.404;-0.038;2023-03-11T07:34:47;8.68;;;5.07;;
46230;SDS011;31949;51.404;-0.038;2023-03-11T07:37:14;6.38;;;4.63;;
46230;SDS011;31949;51.404;-0.038;2023-03-11T07:39:41;11.07;;;5.72;;
46230;SDS011;31949;51.404;-0.038;2023-03-11T07:42:09;8.20;;;5.70;;
46230;SDS011;31949;51.404;-0.038;2023-03-11T07:44:37;7.45;;;4.82;;
46230;SDS011;31949;51.404;-0.038;2023-03-11T07:47:04;6.10;;;4.30;;
46230;SDS011;31949;51.404;-0.038;2023-03-11T07:49:34;8.32;;;5.22;;
46230;SDS011;31949;51.404;-0.038;2023-03-11T07:52:01;4.97;;;4.47;;
46230;SDS011;31949;51.404;-0.038;2023-03-11T07:54:29;7.10;;;5.10;;
46230;SDS011;31949;51.404;-0.038;2023-03-11T07:56:56;8.02;;;5.03;;
46230;SDS011;31949;51.404;-0.038;2023-03-11T07:59:23;11.23;;;5.90;;
46230;SDS011;31949;51.404;-0.038;2023-03-11T08:01:51;7.35;;;5.18;;
46230;SDS011;31949;51.404;-0.038;2023-03-11T08:04:18;8.20;;;4.82;;
46230;SDS011;31949;51.404;-0.038;2023-03-11T08:06:46;8.60;;;5.10;;
46230;SDS011;31949;51.404;-0.038;2023-03-11T08:09:13;5.43;;;3.72;;
46230;SDS011;31949;51.404;-0.038;2023-03-11T08:11:40;3.65;;;3.15;;
46230;SDS011;31949;51.404;-0.038;2023-03-11T08:14:08;7.15;;;3.70;;
46230;SDS011;31949;51.404;-0.038;2023-03-11T08:16:36;4.65;;;3.50;;
46230;SDS011;31949;51.404;-0.038;2023-03-11T08:19:06;5.60;;;3.42;;
46230;SDS011;31949;51.404;-0.038;2023-03-11T08:21:33;6.82;;;4.13;;
46230;SDS011;31949;51.404;-0.038;2023-03-11T08:24:00;7.72;;;3.00;;
46230;SDS011;31949;51.404;-0.038;2023-03-11T08:26:31;9.63;;;4.35;;
46230;SDS011;31949;51.404;-0.038;2023-03-11T08:28:58;4.88;;;2.30;;
46230;SDS011;31949;51.404;-0.038;2023-03-11T08:31:29;5.72;;;2.55;;
46230;SDS011;31949;51.404;-0.038;2023-03-11T08:33:59;6.32;;;2.42;;
46230;SDS011;31949;51.404;-0.038;2023-03-11T08:36:29;4.55;;;3.17;;
46230;SDS011;31949;51.404;-0.038;2023-03-11T08:38:57;6.63;;;2.45;;
46230;SDS011;31949;51.404;-0.038;2023-03-11T08:41:24;6.43;;;2.35;;
46230;SDS011;31949;51.404;-0.038;2023-03-11T08:43:52;2.38;;;2.05;;
46230;SDS011;31949;51.404;-0.038;2023-03-11T08:46:30;5.35;;;1.90;;
46230;SDS011;31949;51.404;-0.038;2023-03-11T08:48:59;3.88;;;1.58;;
46230;SDS011;31949;51.404;-0.038;2023-03-11T08:51:28;5.25;;;1.95;;
46230;SDS011;31949;51.404;-0.038;2023-03-11T08:53:58;4.80;;;1.88;;
46230;SDS011;31949;51.404;-0.038;2023-03-11T08:56:26;3.17;;;1.48;;
46230;SDS011;31949;51.404;-0.038;2023-03-11T08:58:53;2.67;;;1.40;;
46230;SDS011;31949;51.404;-0.038;2023-03-11T09:01:21;4.35;;;1.63;;
46230;SDS011;31949;51.404;-0.038;2023-03-11T09:03:49;2.65;;;1.58;;
46230;SDS011;31949;51.404;-0.038;2023-03-11T09:06:17;4.70;;;1.88;;
46230;SDS011;31949;51.404;-0.038;2023-03-11T09:08:45;5.40;;;2.30;;
46230;SDS011;31949;51.404;-0.038;2023-03-11T09:11:14;5.30;;;1.83;;
46230;SDS011;31949;51.404;-0.038;2023-03-11T09:13:42;3.58;;;1.65;;
46230;SDS011;31949;51.404;-0.038;2023-03-11T09:16:13;4.40;;;1.45;;
46230;SDS011;31949;51.404;-0.038;2023-03-11T09:18:42;4.68;;;1.55;;
46230;SDS011;31949;51.404;-0.038;2023-03-11T09:21:10;4.93;;;1.88;;
46230;SDS011;31949;51.404;-0.038;2023-03-11T09:23:38;2.80;;;1.48;;
46230;SDS011;31949;51.404;-0.038;2023-03-11T09:26:09;5.75;;;1.98;;
46230;SDS011;31949;51.404;-0.038;2023-03-11T09:28:37;4.97;;;1.50;;
46230;SDS011;31949;51.404;-0.038;2023-03-11T09:31:05;6.45;;;1.30;;
46230;SDS011;31949;51.404;-0.038;2023-03-11T09:33:39;3.75;;;1.70;;
46230;SDS011;31949;51.404;-0.038;2023-03-11T09:36:16;4.40;;;1.33;;
46230;SDS011;31949;51.404;-0.038;2023-03-11T09:38:45;4.90;;;1.30;;
46230;SDS011;31949;51.404;-0.038;2023-03-11T09:48:46;3.65;;;1.55;;
46230;SDS011;31949;51.404;-0.038;2023-03-11T09:51:31;3.80;;;1.13;;
46230;SDS011;31949;51.404;-0.038;2023-03-11T09:54:04;4.75;;;1.25;;
46230;SDS011;31949;51.404;-0.038;2023-03-11T09:56:36;5.15;;;1.60;;
46230;SDS011;31949;51.404;-0.038;2023-03-11T09:59:08;3.15;;;1.30;;
46230;SDS011;31949;51.404;-0.038;2023-03-11T10:01:59;6.60;;;1.00;;
46230;SDS011;31949;51.404;-0.038;2023-03-11T10:04:50;8.35;;;1.05;;
46230;SDS011;31949;51.404;-0.038;2023-03-11T10:07:32;2.47;;;0.93;;
46230;SDS011;31949;51.404;-0.038;2023-03-11T10:10:06;3.17;;;0.90;;
46230;SDS011;31949;51.404;-0.038;2023-03-11T10:26:42;5.13;;;0.82;;
46230;SDS011;31949;51.404;-0.038;2023-03-11T10:34:45;5.10;;;0.93;;
46230;SDS011;31949;51.404;-0.038;2023-03-11T10:37:20;3.15;;;1.33;;
46230;SDS011;31949;51.404;-0.038;2023-03-11T10:40:14;6.72;;;1.85;;
46230;SDS011;31949;51.404;-0.038;2023-03-11T10:42:49;3.60;;;0.88;;
46230;SDS011;31949;51.404;-0.038;2023-03-11T10:45:18;5.05;;;1.50;;
46230;SDS011;31949;51.404;-0.038;2023-03-11T10:47:49;5.57;;;1.27;;
46230;SDS011;31949;51.404;-0.038;2023-03-11T10:50:17;7.18;;;1.75;;
46230;SDS011;31949;51.404;-0.038;2023-03-11T10:53:07;3.40;;;1.00;;
46230;SDS011;31949;51.404;-0.038;2023-03-11T10:56:12;10.30;;;1.85;;
46230;SDS011;31949;51.404;-0.038;2023-03-11T10:58:32;4.35;;;1.08;;
46230;SDS011;31949;51.404;-0.038;2023-03-11T11:01:16;2.83;;;0.75;;
46230;SDS011;31949;51.404;-0.038;2023-03-11T11:03:45;5.85;;;1.35;;
46230;SDS011;31949;51.404;-0.038;2023-03-11T11:11:42;5.53;;;1.15;;
46230;SDS011;31949;51.404;-0.038;2023-03-11T11:14:40;3.75;;;1.05;;
46230;SDS011;31949;51.404;-0.038;2023-03-11T11:17:26;6.95;;;1.27;;
46230;SDS011;31949;51.404;-0.038;2023-03-11T11:19:56;4.97;;;1.70;;
46230;SDS011;31949;51.404;-0.038;2023-03-11T11:22:24;6.47;;;2.13;;
46230;SDS011;31949;51.404;-0.038;2023-03-11T11:24:55;3.63;;;1.25;;
46230;SDS011;31949;51.404;-0.038;2023-03-11T11:27:23;10.40;;;1.52;;
46230;SDS011;31949;51.404;-0.038;2023-03-11T11:32:36;6.00;;;1.38;;
46230;SDS011;31949;51.404;-0.038;2023-03-11T11:35:05;5.10;;;1.33;;
46230;SDS011;31949;51.404;-0.038;2023-03-11T11:37:41;4.22;;;1.63;;
46230;SDS011;31949;51.404;-0.038;2023-03-11T11:42:43;6.55;;;2.15;;
46230;SDS011;31949;51.404;-0.038;2023-03-11T11:48:10;8.95;;;1.90;;
46230;SDS011;31949;51.404;-0.038;2023-03-11T11:51:01;4.35;;;1.45;;
46230;SDS011;31949;51.404;-0.038;2023-03-11T11:53:45;5.40;;;1.85;;
46230;SDS011;31949;51.404;-0.038;2023-03-11T11:56:26;6.47;;;1.52;;
46230;SDS011;31949;51.404;-0.038;2023-03-11T11:58:53;4.45;;;1.40;;
46230;SDS011;31949;51.404;-0.038;2023-03-11T12:01:29;4.18;;;1.60;;
46230;SDS011;31949;51.404;-0.038;2023-03-11T12:15:20;5.88;;;1.63;;
46230;SDS011;31949;51.404;-0.038;2023-03-11T12:17:49;2.90;;;1.10;;
46230;SDS011;31949;51.404;-0.038;2023-03-11T12:26:00;2.90;;;1.10;;
46230;SDS011;31949;51.404;-0.038;2023-03-11T12:31:16;4.60;;;1.60;;
46230;SDS011;31949;51.404;-0.038;2023-03-11T12:33:45;3.50;;;1.60;;
46230;SDS011;31949;51.404;-0.038;2023-03-11T12:36:38;4.45;;;1.27;;
46230;SDS011;31949;51.404;-0.038;2023-03-11T12:39:07;1.30;;;0.80;;
46230;SDS011;31949;51.404;-0.038;2023-03-11T12:42:19;2.97;;;1.30;;
46230;SDS011;31949;51.404;-0.038;2023-03-11T12:44:48;5.35;;;1.10;;
46230;SDS011;31949;51.404;-0.038;2023-03-11T12:47:17;7.15;;;2.05;;
46230;SDS011;31949;51.404;-0.038;2023-03-11T12:49:55;5.68;;;1.58;;
46230;SDS011;31949;51.404;-0.038;2023-03-11T12:52:51;4.47;;;1.33;;
46230;SDS011;31949;51.404;-0.038;2023-03-11T12:55:23;4.60;;;1.77;;
46230;SDS011;31949;51.404;-0.038;2023-03-11T12:58:19;4.60;;;1.40;;
46230;SDS011;31949;51.404;-0.038;2023-03-11T13:00:58;4.25;;;1.30;;
46230;SDS011;31949;51.404;-0.038;2023-03-11T13:09:19;2.75;;;0.77;;
46230;SDS011;31949;51.404;-0.038;2023-03-11T13:11:46;3.50;;;0.82;;
46230;SDS011;31949;51.404;-0.038;2023-03-11T13:16:51;2.47;;;0.85;;
46230;SDS011;31949;51.404;-0.038;2023-03-11T13:21:53;4.65;;;1.08;;
46230;SDS011;31949;51.404;-0.038;2023-03-11T13:40:39;2.72;;;0.88;;
46230;SDS011;31949;51.404;-0.038;2023-03-11T13:48:31;4.72;;;0.95;;
46230;SDS011;31949;51.404;-0.038;2023-03-11T13:51:10;2.70;;;0.80;;
46230;SDS011;31949;51.404;-0.038;2023-03-11T13:53:43;4.03;;;1.00;;
46230;SDS011;31949;51.404;-0.038;2023-03-11T13:56:28;3.67;;;0.75;;
46230;SDS011;31949;51.404;-0.038;2023-03-11T13:59:21;3.72;;;0.82;;
46230;SDS011;31949;51.404;-0.038;2023-03-11T14:01:50;3.40;;;0.85;;
46230;SDS011;31949;51.404;-0.038;2023-03-11T14:04:26;3.30;;;0.80;;
46230;SDS011;31949;51.404;-0.038;2023-03-11T14:06:56;5.13;;;0.80;;
46230;SDS011;31949;51.404;-0.038;2023-03-11T14:09:24;3.88;;;0.90;;
46230;SDS011;31949;51.404;-0.038;2023-03-11T14:11:53;2.25;;;0.88;;
46230;SDS011;31949;51.404;-0.038;2023-03-11T14:15:11;2.45;;;0.75;;
46230;SDS011;31949;51.404;-0.038;2023-03-11T14:17:27;1.92;;;1.00;;
46230;SDS011;31949;51.404;-0.038;2023-03-11T14:20:04;4.05;;;1.00;;
46230;SDS011;31949;51.404;-0.038;2023-03-11T14:25:08;5.40;;;1.00;;
46230;SDS011;31949;51.404;-0.038;2023-03-11T14:27:39;3.00;;;1.00;;
46230;SDS011;31949;51.404;-0.038;2023-03-11T14:30:32;3.20;;;1.00;;
46230;SDS011;31949;51.404;-0.038;2023-03-11T14:33:01;3.03;;;0.80;;
46230;SDS011;31949;51.404;-0.038;2023-03-11T14:35:31;5.50;;;1.15;;
46230;SDS011;31949;51.404;-0.038;2023-03-11T14:37:59;4.00;;;0.80;;
46230;SDS011;31949;51.404;-0.038;2023-03-11T14:40:31;3.45;;;1.40;;
46230;SDS011;31949;51.404;-0.038;2023-03-11T14:43:04;2.97;;;1.58;;
46230;SDS011;31949;51.404;-0.038;2023-03-11T14:45:34;4.07;;;1.10;;
46230;SDS011;31949;51.404;-0.038;2023-03-11T14:48:04;4.32;;;1.52;;
46230;SDS011;31949;51.404;-0.038;2023-03-11T14:50:39;3.20;;;1.25;;
46230;SDS011;31949;51.404;-0.038;2023-03-11T14:53:12;3.85;;;1.50;;
46230;SDS011;31949;51.404;-0.038;2023-03-11T14:55:54;3.80;;;1.27;;
46230;SDS011;31949;51.404;-0.038;2023-03-11T15:00:57;5.78;;;1.27;;
46230;SDS011;31949;51.404;-0.038;2023-03-11T15:03:28;7.00;;;1.27;;
46230;SDS011;31949;51.404;-0.038;2023-03-11T15:08:36;6.30;;;2.50;;
46230;SDS011;31949;51.404;-0.038;2023-03-11T15:13:41;5.03;;;1.30;;
46230;SDS011;31949;51.404;-0.038;2023-03-11T15:18:55;3.13;;;1.25;;
46230;SDS011;31949;51.404;-0.038;2023-03-11T15:21:26;3.60;;;1.27;;
46230;SDS011;31949;51.404;-0.038;2023-03-11T15:23:58;4.70;;;1.33;;
46230;SDS011;31949;51.404;-0.038;2023-03-11T15:26:28;2.30;;;1.02;;
46230;SDS011;31949;51.404;-0.038;2023-03-11T15:29:02;2.13;;;0.90;;
46230;SDS011;31949;51.404;-0.038;2023-03-11T15:31:40;2.97;;;1.15;;
46230;SDS011;31949;51.404;-0.038;2023-03-11T15:39:17;3.45;;;1.23;;
46230;SDS011;31949;51.404;-0.038;2023-03-11T15:41:59;6.15;;;1.73;;
46230;SDS011;31949;51.404;-0.038;2023-03-11T15:44:36;4.43;;;1.38;;
46230;SDS011;31949;51.404;-0.038;2023-03-11T15:47:17;4.47;;;1.23;;
46230;SDS011;31949;51.404;-0.038;2023-03-11T15:49:46;3.33;;;1.20;;
46230;SDS011;31949;51.404;-0.038;2023-03-11T15:52:13;3.35;;;0.80;;
46230;SDS011;31949;51.404;-0.038;2023-03-11T15:54:41;3.33;;;0.95;;
46230;SDS011;31949;51.404;-0.038;2023-03-11T15:57:24;1.42;;;0.68;;
46230;SDS011;31949;51.404;-0.038;2023-03-11T15:59:53;2.55;;;0.85;;
46230;SDS011;31949;51.404;-0.038;2023-03-11T16:02:23;3.33;;;1.17;;
46230;SDS011;31949;51.404;-0.038;2023-03-11T16:04:54;2.70;;;0.90;;
46230;SDS011;31949;51.404;-0.038;2023-03-11T16:07:22;2.15;;;0.98;;
46230;SDS011;31949;51.404;-0.038;2023-03-11T16:10:04;2.33;;;1.00;;
46230;SDS011;31949;51.404;-0.038;2023-03-11T16:12:32;5.28;;;1.30;;
46230;SDS011;31949;51.404;-0.038;2023-03-11T16:15:00;5.68;;;1.05;;
46230;SDS011;31949;51.404;-0.038;2023-03-11T16:17:27;6.20;;;1.40;;
46230;SDS011;31949;51.404;-0.038;2023-03-11T16:20:12;3.60;;;1.17;;
46230;SDS011;31949;51.404;-0.038;2023-03-11T16:22:39;6.40;;;1.20;;
46230;SDS011;31949;51.404;-0.038;2023-03-11T16:25:08;2.47;;;1.42;;
46230;SDS011;31949;51.404;-0.038;2023-03-11T16:28:00;6.50;;;1.45;;
46230;SDS011;31949;51.404;-0.038;2023-03-11T16:30:28;3.17;;;1.15;;
46230;SDS011;31949;51.404;-0.038;2023-03-11T16:32:56;3.17;;;1.05;;
46230;SDS011;31949;51.404;-0.038;2023-03-11T16:35:24;3.08;;;1.55;;
46230;SDS011;31949;51.404;-0.038;2023-03-11T16:37:53;2.95;;;1.20;;
46230;SDS011;31949;51.404;-0.038;2023-03-11T16:40:21;1.58;;;1.10;;
46230;SDS011;31949;51.404;-0.038;2023-03-11T16:42:53;3.55;;;1.92;;
46230;SDS011;31949;51.404;-0.038;2023-03-11T16:45:26;6.65;;;1.27;;
46230;SDS011;31949;51.404;-0.038;2023-03-11T16:47:53;5.18;;;1.00;;
46230;SDS011;31949;51.404;-0.038;2023-03-11T16:50:20;8.48;;;1.63;;
46230;SDS011;31949;51.404;-0.038;2023-03-11T16:52:52;7.32;;;1.05;;
46230;SDS011;31949;51.404;-0.038;2023-03-11T16:55:21;2.08;;;0.95;;